createdAt,value
2019-04-01T00:00:10.691Z,99.99
2019-04-01T00:01:10.685Z,99.99
2019-04-01T00:02:10.678Z,99.99
2019-04-01T00:03:10.668Z,99.99
2019-04-01T00:04:10.662Z,99.99
2019-04-01T00:05:10.654Z,99.99
2019-04-01T00:06:10.639Z,99.99
2019-04-01T00:07:10.636Z,99.99
2019-04-01T00:08:10.624Z,99.99
2019-04-01T00:09:10.620Z,99.99
2019-04-01T00:10:10.607Z,99.99
2019-04-01T00:11:10.602Z,99.99
2019-04-01T00:12:10.594Z,99.99
2019-04-01T00:13:10.583Z,99.99
2019-04-01T00:14:10.579Z,99.99
2019-04-01T00:15:10.571Z,99.99
2019-04-01T00:16:10.558Z,99.99
2019-04-01T00:17:10.548Z,99.99
2019-04-01T00:18:10.539Z,99.99
2019-04-01T00:19:10.538Z,99.99
2019-04-01T00:20:10.534Z,99.99
2019-04-01T00:21:10.516Z,99.99
2019-04-01T00:22:10.511Z,99.99
2019-04-01T00:23:10.572Z,99.99
2019-04-01T00:24:10.494Z,99.99
2019-04-01T00:25:10.487Z,99.99
2019-04-01T00:26:10.475Z,99.99
2019-04-01T00:27:10.468Z,99.99
2019-04-01T00:28:10.469Z,99.99
2019-04-01T00:29:10.449Z,99.99
2019-04-01T00:30:10.441Z,99.99
2019-04-01T00:31:10.431Z,99.99
2019-04-01T00:32:10.426Z,99.99
2019-04-01T00:33:10.416Z,99.99
2019-04-01T00:34:10.409Z,99.99
2019-04-01T00:35:10.405Z,99.99
2019-04-01T00:36:10.392Z,99.99
2019-04-01T00:37:10.380Z,99.99
2019-04-01T00:38:10.371Z,99.99
2019-04-01T00:39:10.363Z,99.99
2019-04-01T00:40:10.366Z,99.99
2019-04-01T00:41:10.346Z,99.99
2019-04-01T00:42:10.341Z,99.99
2019-04-01T00:43:10.335Z,99.99
2019-04-01T00:44:10.322Z,99.99
2019-04-01T00:45:10.311Z,99.99
2019-04-01T00:46:10.306Z,99.99
2019-04-01T00:47:10.302Z,99.99
2019-04-01T00:48:10.290Z,99.99
2019-04-01T00:49:10.285Z,99.99
2019-04-01T00:50:10.275Z,99.99
2019-04-01T00:51:10.272Z,99.99
2019-04-01T00:52:10.256Z,99.99
2019-04-01T00:53:10.249Z,99.99
2019-04-01T00:54:10.239Z,99.99
2019-04-01T00:55:10.231Z,99.99
2019-04-01T00:56:10.226Z,99.99
2019-04-01T00:57:10.212Z,99.99
2019-04-01T00:58:10.208Z,99.99
2019-04-01T00:59:10.200Z,99.99
2019-04-01T01:00:10.184Z,99.99
2019-04-01T01:01:10.176Z,99.99
2019-04-01T01:02:10.198Z,99.99
2019-04-01T01:03:10.166Z,99.99
2019-04-01T01:04:10.155Z,99.99
2019-04-01T01:05:10.147Z,99.99
2019-04-01T01:06:10.144Z,99.99
2019-04-01T01:07:10.131Z,99.99
2019-04-01T01:08:10.204Z,99.99
2019-04-01T01:09:10.114Z,99.99
2019-04-01T01:10:10.110Z,99.99
2019-04-01T01:11:10.092Z,99.99
2019-04-01T01:12:10.084Z,99.99
2019-04-01T01:13:10.077Z,99.99
2019-04-01T01:14:10.067Z,99.99
2019-04-01T01:15:10.062Z,99.99
2019-04-01T01:16:10.058Z,99.99
2019-04-01T01:17:10.039Z,99.99
2019-04-01T01:18:10.037Z,99.99
2019-04-01T01:19:10.028Z,99.99
2019-04-01T01:20:10.013Z,99.99
2019-04-01T01:21:10.008Z,99.99
2019-04-01T01:22:10.002Z,99.99
2019-04-01T01:23:09.991Z,99.99
2019-04-01T01:24:09.984Z,99.99
2019-04-01T01:25:09.978Z,99.99
2019-04-01T01:26:09.967Z,99.99
2019-04-01T01:27:09.959Z,99.99
2019-04-01T01:28:09.952Z,99.99
2019-04-01T01:29:09.937Z,99.99
2019-04-01T01:30:09.933Z,99.99
2019-04-01T01:31:09.920Z,99.99
2019-04-01T01:32:09.911Z,99.99
2019-04-01T01:33:09.918Z,99.99
2019-04-01T01:34:09.902Z,99.99
2019-04-01T01:35:09.889Z,99.99
2019-04-01T01:36:09.883Z,99.99
2019-04-01T01:37:09.870Z,99.99
2019-04-01T01:38:09.864Z,99.99
2019-04-01T01:39:09.856Z,99.99
2019-04-01T01:40:09.849Z,99.99
2019-04-01T01:41:09.840Z,99.99
2019-04-01T01:42:09.825Z,99.99
2019-04-01T01:43:09.821Z,99.99
2019-04-01T01:44:09.807Z,99.99
2019-04-01T01:45:09.802Z,99.99
2019-04-01T01:46:09.798Z,99.99
2019-04-01T01:47:09.785Z,99.99
2019-04-01T01:48:09.780Z,99.99
2019-04-01T01:49:09.769Z,99.99
2019-04-01T01:50:09.760Z,99.99
2019-04-01T01:51:09.752Z,99.99
2019-04-01T01:52:09.745Z,99.99
2019-04-01T01:53:09.731Z,99.99
2019-04-01T01:54:09.722Z,99.99
2019-04-01T01:55:09.721Z,99.99
2019-04-01T01:56:09.709Z,99.99
2019-04-01T01:57:09.704Z,99.99
2019-04-01T01:58:09.692Z,99.99
2019-04-01T01:59:09.684Z,99.99
2019-04-01T02:00:09.674Z,99.99
2019-04-01T02:01:09.666Z,99.99
2019-04-01T02:02:09.657Z,99.99
2019-04-01T02:03:09.643Z,99.99
2019-04-01T02:04:09.640Z,99.99
2019-04-01T02:05:09.634Z,99.99
2019-04-01T02:06:09.625Z,99.99
2019-04-01T02:07:09.610Z,99.99
2019-04-01T02:08:09.605Z,99.99
2019-04-01T02:09:09.596Z,99.99
2019-04-01T02:10:09.589Z,99.99
2019-04-01T02:11:09.579Z,99.99
2019-04-01T02:12:09.570Z,99.99
2019-04-01T02:13:09.561Z,99.99
2019-04-01T02:14:09.548Z,99.99
2019-04-01T02:15:09.546Z,99.99
2019-04-01T02:16:09.533Z,99.99
2019-04-01T02:17:09.526Z,99.99
2019-04-01T02:18:09.520Z,99.99
2019-04-01T02:19:09.506Z,99.99
2019-04-01T02:20:09.501Z,99.99
2019-04-01T02:21:09.487Z,99.99
2019-04-01T02:22:09.478Z,99.99
2019-04-01T02:23:09.477Z,99.99
2019-04-01T02:24:09.468Z,99.99
2019-04-01T02:25:09.459Z,99.99
2019-04-01T02:26:09.448Z,99.99
2019-04-01T02:27:09.438Z,99.99
2019-04-01T02:28:09.428Z,99.99
2019-04-01T02:29:09.417Z,99.99
2019-04-01T02:30:09.414Z,99.99
2019-04-01T02:31:09.404Z,99.99
2019-04-01T02:32:09.409Z,99.99
2019-04-01T02:33:09.387Z,99.99
2019-04-01T02:34:09.380Z,99.99
2019-04-01T02:35:09.401Z,99.99
2019-04-01T02:36:09.361Z,99.99
2019-04-01T02:37:09.352Z,99.99
2019-04-01T02:38:09.339Z,99.99
2019-04-01T02:39:09.340Z,99.99
2019-04-01T02:40:09.326Z,99.99
2019-04-01T02:41:09.327Z,99.99
2019-04-01T02:42:09.310Z,99.99
2019-04-01T02:43:09.298Z,99.99
2019-04-01T02:44:09.290Z,99.99
2019-04-01T02:45:09.279Z,99.99
2019-04-01T02:46:09.274Z,99.99
2019-04-01T02:47:09.263Z,99.99
2019-04-01T02:48:09.259Z,99.99
2019-04-01T02:49:09.247Z,99.99
2019-04-01T02:50:09.242Z,99.99
2019-04-01T02:51:09.233Z,99.99
2019-04-01T02:52:09.223Z,99.99
2019-04-01T02:53:09.212Z,99.99
2019-04-01T02:54:09.209Z,99.99
2019-04-01T02:55:09.191Z,99.99
2019-04-01T02:56:09.188Z,99.99
2019-04-01T02:57:09.189Z,99.99
2019-04-01T02:59:09.160Z,99.99
2019-04-01T03:00:09.163Z,99.99
2019-04-01T03:01:09.141Z,99.99
2019-04-01T03:02:09.141Z,99.99
2019-04-01T03:03:09.140Z,99.99
2019-04-01T03:04:09.111Z,99.99
2019-04-01T03:05:09.107Z,99.99
2019-04-01T03:06:09.101Z,99.99
2019-04-01T03:07:09.096Z,99.99
2019-04-01T03:08:09.083Z,99.99
2019-04-01T03:09:09.085Z,99.99
2019-04-01T03:10:09.064Z,99.99
2019-04-01T03:11:10.660Z,99.99
2019-04-01T03:12:09.044Z,99.99
2019-04-01T03:13:09.037Z,99.99
2019-04-01T03:14:09.030Z,99.99
2019-04-01T03:15:09.020Z,99.99
2019-04-01T03:16:09.021Z,99.99
2019-04-01T03:17:09.002Z,99.99
2019-04-01T03:18:08.992Z,99.99
2019-04-01T03:19:08.988Z,99.99
2019-04-01T03:20:08.975Z,99.99
2019-04-01T03:21:08.970Z,99.99
2019-04-01T03:22:08.957Z,99.99
2019-04-01T03:23:08.951Z,99.99
2019-04-01T03:24:08.938Z,99.99
2019-04-01T03:25:08.931Z,99.99
2019-04-01T03:26:08.929Z,99.99
2019-04-01T03:27:08.914Z,99.99
2019-04-01T03:28:08.902Z,99.99
2019-04-01T03:29:08.902Z,99.99
2019-04-01T03:30:08.899Z,99.99
2019-04-01T03:31:08.891Z,99.99
2019-04-01T03:32:08.873Z,99.99
2019-04-01T03:33:08.858Z,99.99
2019-04-01T03:34:08.854Z,99.99
2019-04-01T03:35:08.846Z,99.99
2019-04-01T03:36:08.844Z,99.99
2019-04-01T03:37:08.824Z,99.99
2019-04-01T03:38:08.824Z,99.99
2019-04-01T03:39:08.805Z,99.99
2019-04-01T03:40:08.798Z,99.99
2019-04-01T03:41:08.784Z,99.99
2019-04-01T03:42:08.781Z,99.99
2019-04-01T03:43:08.772Z,99.99
2019-04-01T03:44:08.765Z,99.99
2019-04-01T03:45:08.752Z,99.99
2019-04-01T03:46:08.741Z,99.99
2019-04-01T03:47:08.739Z,99.99
2019-04-01T03:48:08.723Z,99.99
2019-04-01T03:49:08.720Z,99.99
2019-04-01T03:50:08.711Z,99.99
2019-04-01T03:51:08.709Z,99.99
2019-04-01T03:52:10.414Z,99.99
2019-04-01T03:53:08.684Z,99.99
2019-04-01T03:54:08.668Z,99.99
2019-04-01T03:55:08.665Z,99.99
2019-04-01T03:56:08.650Z,99.99
2019-04-01T03:57:08.645Z,99.99
2019-04-01T03:58:08.633Z,99.99
2019-04-01T03:59:08.632Z,99.99
2019-04-01T04:00:08.614Z,99.99
2019-04-01T04:01:08.614Z,99.99
2019-04-01T04:02:08.601Z,99.99
2019-04-01T04:03:08.595Z,99.99
2019-04-01T04:04:08.583Z,99.99
2019-04-01T04:05:08.570Z,99.99
2019-04-01T04:06:08.562Z,99.99
2019-04-01T04:07:08.557Z,99.99
2019-04-01T04:08:08.543Z,99.99
2019-04-01T04:09:08.545Z,99.99
2019-04-01T04:10:08.531Z,99.99
2019-04-01T04:11:08.521Z,99.99
2019-04-01T04:12:08.513Z,99.99
2019-04-01T04:13:08.501Z,99.99
2019-04-01T04:14:08.493Z,99.99
2019-04-01T04:15:08.482Z,99.99
2019-04-01T04:16:08.479Z,99.99
2019-04-01T04:17:08.469Z,99.99
2019-04-01T04:18:08.462Z,99.99
2019-04-01T04:19:08.453Z,99.99
2019-04-01T04:20:08.437Z,99.99
2019-04-01T04:21:08.433Z,99.99
2019-04-01T04:22:08.421Z,99.99
2019-04-01T04:23:08.428Z,99.99
2019-04-01T04:24:08.403Z,99.99
2019-04-01T04:25:08.396Z,99.99
2019-04-01T04:26:08.393Z,99.99
2019-04-01T04:27:11.192Z,99.99
2019-04-01T04:28:08.369Z,99.99
2019-04-01T04:29:08.364Z,99.99
2019-04-01T04:30:08.357Z,99.99
2019-04-01T04:31:08.345Z,99.99
2019-04-01T04:32:08.332Z,99.99
2019-04-01T04:33:08.327Z,99.99
2019-04-01T04:34:08.317Z,99.99
2019-04-01T04:35:08.302Z,99.99
2019-04-01T04:36:08.299Z,99.99
2019-04-01T04:37:08.290Z,99.99
2019-04-01T04:38:08.273Z,99.99
2019-04-01T04:39:08.270Z,99.99
2019-04-01T04:40:08.356Z,99.99
2019-04-01T04:41:08.253Z,99.99
2019-04-01T04:42:08.243Z,99.99
2019-04-01T04:43:08.232Z,99.99
2019-04-01T04:44:08.219Z,99.99
2019-04-01T04:45:08.219Z,99.99
2019-04-01T04:46:08.217Z,99.99
2019-04-01T04:47:08.193Z,99.99
2019-04-01T04:48:08.183Z,99.99
2019-04-01T04:49:08.177Z,99.99
2019-04-01T04:50:08.169Z,99.99
2019-04-01T04:51:08.164Z,99.99
2019-04-01T04:52:08.150Z,99.99
2019-04-01T04:53:08.139Z,99.99
2019-04-01T04:54:08.138Z,99.99
2019-04-01T04:55:08.131Z,99.99
2019-04-01T04:56:08.115Z,99.99
2019-04-01T04:57:08.107Z,99.99
2019-04-01T04:58:08.105Z,99.99
2019-04-01T04:59:08.089Z,99.99
2019-04-01T05:00:08.078Z,99.99
2019-04-01T05:01:08.073Z,99.99
2019-04-01T05:02:08.056Z,99.99
2019-04-01T05:03:08.051Z,99.99
2019-04-01T05:04:08.045Z,99.99
2019-04-01T05:05:08.040Z,99.99
2019-04-01T05:06:08.031Z,99.99
2019-04-01T05:07:08.013Z,99.99
2019-04-01T05:08:08.002Z,99.99
2019-04-01T05:09:08.001Z,99.99
2019-04-01T05:10:07.991Z,99.99
2019-04-01T05:11:07.979Z,99.99
2019-04-01T05:12:07.967Z,99.99
2019-04-01T05:13:07.959Z,99.99
2019-04-01T05:14:07.948Z,99.99
2019-04-01T05:15:07.940Z,99.99
2019-04-01T05:16:07.937Z,99.99
2019-04-01T05:17:07.925Z,99.99
2019-04-01T05:18:07.922Z,99.99
2019-04-01T05:19:07.911Z,99.99
2019-04-01T05:20:07.893Z,99.99
2019-04-01T05:21:07.893Z,99.99
2019-04-01T05:22:07.885Z,99.99
2019-04-01T05:23:07.875Z,99.99
2019-04-01T05:24:07.857Z,99.99
2019-04-01T05:25:07.849Z,99.99
2019-04-01T05:26:07.848Z,99.99
2019-04-01T05:27:07.834Z,99.99
2019-04-01T05:28:07.822Z,99.99
2019-04-01T05:29:07.814Z,99.99
2019-04-01T05:30:07.803Z,99.99
2019-04-01T05:31:07.797Z,99.99
2019-04-01T05:32:07.789Z,99.99
2019-04-01T05:33:07.781Z,99.99
2019-04-01T05:34:07.768Z,99.99
2019-04-01T05:35:07.767Z,99.99
2019-04-01T05:36:07.752Z,99.99
2019-04-01T05:37:09.155Z,99.99
2019-04-01T05:38:07.739Z,99.99
2019-04-01T05:39:07.736Z,99.99
2019-04-01T05:40:07.715Z,99.99
2019-04-01T05:41:07.704Z,99.99
2019-04-01T05:42:07.707Z,99.99
2019-04-01T05:43:07.691Z,99.99
2019-04-01T05:44:07.681Z,99.99
2019-04-01T05:45:07.682Z,99.99
2019-04-01T05:46:07.660Z,99.99
2019-04-01T05:47:07.651Z,99.99
2019-04-01T05:48:07.643Z,99.99
2019-04-01T05:49:07.636Z,99.99
2019-04-01T05:50:07.629Z,99.99
2019-04-01T05:51:07.621Z,99.99
2019-04-01T05:52:07.610Z,99.99
2019-04-01T05:53:07.604Z,99.99
2019-04-01T05:54:07.590Z,99.99
2019-04-01T05:55:09.063Z,99.99
2019-04-01T05:56:07.571Z,99.99
2019-04-01T05:57:07.572Z,99.99
2019-04-01T05:58:07.558Z,99.99
2019-04-01T05:59:07.549Z,99.99
2019-04-01T06:00:07.543Z,99.99
2019-04-01T06:01:07.535Z,99.99
2019-04-01T06:02:07.524Z,99.99
2019-04-01T06:03:07.516Z,99.99
2019-04-01T06:04:07.509Z,99.99
2019-04-01T06:05:07.496Z,99.99
2019-04-01T06:06:07.489Z,99.99
2019-04-01T06:07:07.484Z,99.99
2019-04-01T06:08:07.467Z,99.99
2019-04-01T06:09:07.464Z,99.99
2019-04-01T06:10:07.455Z,99.99
2019-04-01T06:11:07.442Z,99.99
2019-04-01T06:12:07.436Z,99.99
2019-04-01T06:13:07.430Z,99.99
2019-04-01T06:14:07.418Z,99.99
2019-04-01T06:15:07.410Z,99.99
2019-04-01T06:16:07.405Z,99.99
2019-04-01T06:17:07.390Z,99.99
2019-04-01T06:18:07.383Z,99.99
2019-04-01T06:19:07.375Z,99.99
2019-04-01T06:20:07.366Z,99.99
2019-04-01T06:21:07.366Z,99.99
2019-04-01T06:22:07.355Z,99.99
2019-04-01T06:23:07.343Z,99.99
2019-04-01T06:24:07.336Z,99.99
2019-04-01T06:25:07.330Z,99.99
2019-04-01T06:26:07.324Z,99.99
2019-04-01T06:27:07.308Z,99.99
2019-04-01T06:28:07.305Z,99.99
2019-04-01T06:29:07.292Z,99.99
2019-04-01T06:30:07.288Z,99.99
2019-04-01T06:31:07.282Z,99.99
2019-04-01T06:32:07.270Z,99.99
2019-04-01T06:34:07.253Z,99.99
2019-04-01T06:35:07.248Z,99.99
2019-04-01T06:36:07.235Z,99.99
2019-04-01T06:37:07.233Z,99.99
2019-04-01T06:38:07.226Z,99.99
2019-04-01T06:39:07.214Z,99.99
2019-04-01T06:40:07.204Z,99.99
2019-04-01T06:41:07.198Z,99.99
2019-04-01T06:42:07.397Z,99.99
2019-04-01T06:43:07.185Z,99.99
2019-04-01T06:44:07.174Z,99.99
2019-04-01T06:45:07.172Z,99.99
2019-04-01T06:46:07.163Z,99.99
2019-04-01T06:47:07.154Z,99.99
2019-04-01T06:48:07.152Z,99.99
2019-04-01T06:49:07.137Z,99.99
2019-04-01T06:50:07.135Z,99.99
2019-04-01T06:51:07.126Z,99.99
2019-04-01T06:52:07.118Z,99.99
2019-04-01T06:53:07.113Z,99.99
2019-04-01T06:54:07.105Z,99.99
2019-04-01T06:55:07.106Z,99.99
2019-04-01T06:56:07.082Z,99.99
2019-04-01T06:57:07.082Z,99.20
2019-04-01T06:58:07.073Z,99.11
2019-04-01T06:59:07.065Z,99.39
2019-04-01T07:00:07.053Z,99.87
2019-04-01T07:01:07.054Z,99.99
2019-04-01T07:02:07.044Z,98.44
2019-04-01T07:03:07.032Z,98.16
2019-04-01T07:04:07.025Z,98.63
2019-04-01T07:05:07.021Z,97.88
2019-04-01T07:06:07.020Z,97.50
2019-04-01T07:07:18.358Z,96.69
2019-04-01T07:08:06.998Z,96.22
2019-04-01T07:09:06.993Z,96.50
2019-04-01T07:10:06.991Z,95.27
2019-04-01T07:11:06.984Z,93.37
2019-04-01T07:12:06.977Z,94.03
2019-04-01T07:13:06.962Z,94.32
2019-04-01T07:14:06.960Z,94.13
2019-04-01T07:15:06.956Z,92.42
2019-04-01T07:16:15.378Z,91.47
2019-04-01T07:17:06.943Z,90.95
2019-04-01T07:18:06.937Z,90.57
2019-04-01T07:19:06.929Z,90.38
2019-04-01T07:20:08.876Z,89.53
2019-04-01T07:21:06.909Z,88.76
2019-04-01T07:22:06.906Z,88.76
2019-04-01T07:23:06.899Z,87.43
2019-04-01T07:24:06.892Z,86.68
2019-04-01T07:25:06.886Z,85.58
2019-04-01T07:26:06.882Z,84.82
2019-04-01T07:27:08.207Z,85.11
2019-04-01T07:28:06.867Z,86.05
2019-04-01T07:29:06.863Z,87.01
2019-04-01T07:30:06.861Z,84.82
2019-04-01T07:31:06.849Z,84.06
2019-04-01T07:32:06.837Z,81.78
2019-04-01T07:33:06.838Z,81.54
2019-04-01T07:34:06.829Z,82.20
2019-04-01T07:35:06.824Z,80.87
2019-04-01T07:36:06.817Z,79.63
2019-04-01T07:37:06.813Z,79.44
2019-04-01T07:38:06.799Z,78.40
2019-04-01T07:39:06.795Z,77.45
2019-04-01T07:40:06.790Z,76.31
2019-04-01T07:41:06.818Z,76.40
2019-04-01T07:42:06.778Z,74.98
2019-04-01T07:43:06.774Z,75.17
2019-04-01T07:44:06.771Z,75.45
2019-04-01T07:45:06.757Z,74.63
2019-04-01T07:46:08.283Z,73.59
2019-04-01T07:47:06.748Z,74.63
2019-04-01T07:48:06.744Z,75.02
2019-04-01T07:49:06.739Z,74.63
2019-04-01T07:50:06.791Z,74.16
2019-04-01T07:51:07.257Z,73.53
2019-04-01T07:52:06.725Z,72.92
2019-04-01T07:53:06.718Z,72.20
2019-04-01T07:54:06.719Z,72.77
2019-04-01T07:55:06.704Z,72.11
2019-04-01T07:56:06.696Z,70.30
2019-04-01T07:57:06.690Z,68.87
2019-04-01T07:58:06.692Z,69.63
2019-04-01T07:59:06.680Z,70.10
2019-04-01T08:00:06.675Z,69.63
2019-04-01T08:01:06.695Z,69.54
2019-04-01T08:02:06.670Z,69.63
2019-04-01T08:03:06.658Z,69.06
2019-04-01T08:04:06.659Z,68.01
2019-04-01T08:05:06.654Z,68.81
2019-04-01T08:06:06.644Z,69.29
2019-04-01T08:07:06.644Z,70.14
2019-04-01T08:08:06.634Z,70.24
2019-04-01T08:09:06.631Z,70.14
2019-04-01T08:10:06.620Z,67.76
2019-04-01T08:11:06.616Z,67.47
2019-04-01T08:12:06.610Z,66.53
2019-04-01T08:13:06.604Z,67.47
2019-04-01T08:14:06.603Z,67.47
2019-04-01T08:15:06.599Z,67.47
2019-04-01T08:16:06.592Z,68.18
2019-04-01T08:17:06.587Z,67.61
2019-04-01T08:18:06.585Z,66.46
2019-04-01T08:19:06.582Z,66.46
2019-04-01T08:20:06.574Z,66.75
2019-04-01T08:21:06.568Z,65.99
2019-04-01T08:22:06.565Z,65.89
2019-04-01T08:23:06.562Z,66.37
2019-04-01T08:24:06.638Z,65.42
2019-04-01T08:25:06.554Z,64.94
2019-04-01T08:26:06.549Z,64.18
2019-04-01T08:27:07.418Z,64.75
2019-04-01T08:28:06.533Z,64.56
2019-04-01T08:29:06.533Z,63.80
2019-04-01T08:30:06.530Z,65.45
2019-04-01T08:31:06.526Z,66.40
2019-04-01T08:32:06.523Z,66.88
2019-04-01T08:33:06.514Z,65.55
2019-04-01T08:34:06.513Z,63.07
2019-04-01T08:35:06.511Z,63.07
2019-04-01T08:36:06.507Z,63.17
2019-04-01T08:37:06.500Z,64.97
2019-04-01T08:38:06.502Z,63.57
2019-04-01T08:39:06.496Z,62.81
2019-04-01T08:40:06.494Z,62.43
2019-04-01T08:41:06.549Z,62.72
2019-04-01T08:42:06.491Z,63.20
2019-04-01T08:43:06.573Z,61.57
2019-04-01T08:44:06.482Z,61.76
2019-04-01T08:45:06.478Z,62.15
2019-04-01T08:46:06.471Z,62.65
2019-04-01T08:47:06.477Z,62.94
2019-04-01T08:48:06.472Z,62.94
2019-04-01T08:49:08.062Z,60.84
2019-04-01T08:50:06.514Z,59.41
2019-04-01T08:51:06.457Z,59.22
2019-04-01T08:52:06.458Z,58.55
2019-04-01T08:53:06.453Z,59.22
2019-04-01T08:54:06.452Z,58.55
2019-04-01T08:55:06.449Z,58.84
2019-04-01T08:56:06.446Z,59.79
2019-04-01T08:57:06.438Z,58.55
2019-04-01T08:58:06.434Z,58.55
2019-04-01T08:59:06.507Z,59.89
2019-04-01T09:00:06.430Z,58.55
2019-04-01T09:01:06.428Z,59.12
2019-04-01T09:02:17.100Z,59.12
2019-04-01T09:03:06.422Z,60.02
2019-04-01T09:04:06.473Z,60.02
2019-04-01T09:05:06.411Z,58.87
2019-04-01T09:06:06.470Z,59.06
2019-04-01T09:07:06.407Z,58.58
2019-04-01T09:08:06.406Z,57.15
2019-04-01T09:09:06.400Z,56.38
2019-04-01T09:10:06.400Z,56.87
2019-04-01T09:11:06.397Z,57.24
2019-04-01T09:12:06.393Z,57.34
2019-04-01T09:13:06.389Z,58.51
2019-04-01T09:14:06.381Z,58.14
2019-04-01T09:15:06.375Z,57.24
2019-04-01T09:16:06.378Z,56.60
2019-04-01T09:17:06.375Z,56.23
2019-04-01T09:18:06.367Z,56.32
2019-04-01T09:19:06.373Z,56.13
2019-04-01T09:20:06.360Z,57.37
2019-04-01T09:21:06.362Z,56.60
2019-04-01T09:22:06.358Z,56.45
2019-04-01T09:23:06.356Z,55.94
2019-04-01T09:24:06.346Z,54.99
2019-04-01T09:25:06.343Z,56.25
2019-04-01T09:26:06.337Z,56.16
2019-04-01T09:27:06.352Z,55.11
2019-04-01T09:28:06.340Z,54.06
2019-04-01T09:29:06.368Z,53.86
2019-04-01T09:30:06.325Z,54.06
2019-04-01T09:31:06.324Z,53.49
2019-04-01T09:32:06.320Z,54.15
2019-04-01T09:33:06.318Z,55.13
2019-04-01T09:34:06.322Z,53.51
2019-04-01T09:35:06.308Z,53.03
2019-04-01T09:36:06.304Z,54.37
2019-04-01T09:37:06.307Z,54.21
2019-04-01T09:38:06.299Z,51.98
2019-04-01T09:39:06.303Z,51.21
2019-04-01T09:40:06.293Z,52.67
2019-04-01T09:41:06.289Z,53.06
2019-04-01T09:42:06.294Z,53.44
2019-04-01T09:43:06.285Z,51.62
2019-04-01T09:44:06.279Z,52.58
2019-04-01T09:45:06.282Z,52.20
2019-04-01T09:46:06.278Z,52.80
2019-04-01T09:47:06.277Z,51.62
2019-04-01T09:48:06.267Z,52.42
2019-04-01T09:49:06.269Z,50.50
2019-04-01T09:50:06.266Z,51.65
2019-04-01T09:51:06.299Z,50.12
2019-04-01T09:52:06.262Z,50.91
2019-04-01T09:53:06.261Z,48.71
2019-04-01T09:54:06.253Z,49.29
2019-04-01T09:55:06.519Z,49.66
2019-04-01T09:56:06.254Z,48.52
2019-04-01T09:57:17.229Z,47.85
2019-04-01T09:58:06.244Z,49.98
2019-04-01T09:59:06.238Z,49.31
2019-04-01T10:00:06.242Z,47.68
2019-04-01T10:01:06.236Z,48.83
2019-04-01T10:02:06.236Z,47.20
2019-04-01T10:03:06.231Z,46.91
2019-04-01T10:04:06.223Z,46.75
2019-04-01T10:05:06.226Z,46.75
2019-04-01T10:07:06.221Z,48.28
2019-04-01T10:08:06.216Z,47.71
2019-04-01T10:09:06.217Z,47.71
2019-04-01T10:10:06.214Z,45.89
2019-04-01T10:11:06.211Z,46.08
2019-04-01T10:12:06.209Z,45.40
2019-04-01T10:13:06.212Z,46.46
2019-04-01T10:14:06.209Z,46.29
2019-04-01T10:15:06.197Z,47.63
2019-04-01T10:16:06.196Z,46.98
2019-04-01T10:17:06.192Z,45.93
2019-04-01T10:18:06.192Z,45.93
2019-04-01T10:19:06.187Z,46.41
2019-04-01T10:20:06.193Z,45.07
2019-04-01T10:21:06.187Z,44.61
2019-04-01T10:22:06.192Z,45.07
2019-04-01T10:23:06.183Z,43.15
2019-04-01T10:24:06.184Z,43.73
2019-04-01T10:25:06.182Z,43.91
2019-04-01T10:26:06.179Z,42.86
2019-04-01T10:27:06.175Z,43.24
2019-04-01T10:28:06.175Z,42.88
2019-04-01T10:29:06.172Z,42.21
2019-04-01T10:30:06.173Z,43.67
2019-04-01T10:32:06.170Z,44.06
2019-04-01T10:33:06.198Z,44.46
2019-04-01T10:34:06.167Z,42.73
2019-04-01T10:35:06.166Z,43.02
2019-04-01T10:36:06.170Z,43.23
2019-04-01T10:37:06.172Z,43.21
2019-04-01T10:38:06.171Z,43.23
2019-04-01T10:39:06.179Z,41.99
2019-04-01T10:40:06.173Z,42.37
2019-04-01T10:41:06.261Z,41.50
2019-04-01T10:42:06.175Z,41.02
2019-04-01T10:43:06.246Z,41.70
2019-04-01T10:44:06.178Z,41.72
2019-04-01T10:45:06.178Z,41.24
2019-04-01T10:46:06.181Z,40.25
2019-04-01T10:47:06.185Z,39.97
2019-04-01T10:48:06.296Z,38.53
2019-04-01T10:49:06.195Z,40.18
2019-04-01T10:50:06.228Z,40.56
2019-04-01T10:51:06.227Z,40.01
2019-04-01T10:52:06.226Z,42.22
2019-04-01T10:53:06.204Z,41.05
2019-04-01T10:54:06.278Z,40.20
2019-04-01T10:55:06.209Z,41.93
2019-04-01T10:56:06.268Z,41.86
2019-04-01T10:57:06.223Z,40.20
2019-04-01T10:58:06.247Z,39.06
2019-04-01T10:59:06.278Z,37.41
2019-04-01T11:00:06.251Z,37.41
2019-04-01T11:01:06.265Z,39.81
2019-04-01T11:02:06.286Z,37.97
2019-04-01T11:03:06.515Z,38.28
2019-04-01T11:04:06.265Z,39.81
2019-04-01T11:05:06.352Z,38.68
2019-04-01T11:06:06.271Z,36.85
2019-04-01T11:07:06.524Z,36.64
2019-04-01T11:08:06.295Z,38.28
2019-04-01T11:09:06.301Z,38.68
2019-04-01T11:10:06.289Z,37.52
2019-04-01T11:11:06.299Z,37.41
2019-04-01T11:12:06.300Z,36.54
2019-04-01T11:13:06.313Z,39.14
2019-04-01T11:14:06.327Z,38.95
2019-04-01T11:15:06.324Z,37.99
2019-04-01T11:16:06.328Z,38.64
2019-04-01T11:17:06.344Z,37.59
2019-04-01T11:18:06.347Z,36.43
2019-04-01T11:19:06.357Z,39.62
2019-04-01T11:20:06.423Z,39.74
2019-04-01T11:21:06.369Z,40.12
2019-04-01T11:22:06.374Z,40.24
2019-04-01T11:23:06.402Z,39.76
2019-04-01T11:24:07.710Z,40.53
2019-04-01T11:25:06.403Z,36.97
2019-04-01T11:26:06.406Z,36.68
2019-04-01T11:27:06.418Z,35.31
2019-04-01T11:28:06.428Z,35.91
2019-04-01T11:29:06.436Z,36.49
2019-04-01T11:30:07.784Z,36.19
2019-04-01T11:31:06.478Z,36.49
2019-04-01T11:32:07.598Z,37.95
2019-04-01T11:33:07.830Z,36.69
2019-04-01T11:34:06.546Z,36.58
2019-04-01T11:35:06.547Z,35.52
2019-04-01T11:36:06.526Z,35.99
2019-04-01T11:37:06.545Z,35.41
2019-04-01T11:38:06.559Z,36.85
2019-04-01T11:39:06.569Z,35.41
2019-04-01T11:40:11.117Z,37.06
2019-04-01T11:41:06.572Z,36.10
2019-04-01T11:42:06.559Z,36.00
2019-04-01T11:43:06.579Z,36.68
2019-04-01T11:44:06.604Z,35.33
2019-04-01T11:45:06.609Z,36.39
2019-04-01T11:46:06.611Z,37.85
2019-04-01T11:47:06.622Z,37.56
2019-04-01T11:48:06.631Z,39.51
2019-04-01T11:49:06.661Z,36.91
2019-04-01T11:50:06.656Z,37.58
2019-04-01T11:51:06.637Z,37.02
2019-04-01T11:52:06.813Z,34.59
2019-04-01T11:53:07.160Z,33.82
2019-04-01T11:54:08.302Z,36.23
2019-04-01T11:55:06.970Z,38.35
2019-04-01T11:56:06.686Z,36.51
2019-04-01T11:57:06.695Z,34.67
2019-04-01T11:58:06.707Z,35.46
2019-04-01T11:59:08.317Z,36.33
2019-04-01T12:00:11.368Z,35.58
2019-04-01T12:01:06.942Z,34.44
2019-04-01T12:02:06.753Z,33.18
2019-04-01T12:03:06.763Z,34.45
2019-04-01T12:04:06.775Z,34.38
2019-04-01T12:05:06.786Z,33.98
2019-04-01T12:06:06.997Z,34.45
2019-04-01T12:07:06.806Z,35.03
2019-04-01T12:08:06.815Z,34.26
2019-04-01T12:09:06.832Z,33.60
2019-04-01T12:10:07.621Z,34.78
2019-04-01T12:11:06.849Z,33.83
2019-04-01T12:12:06.860Z,32.59
2019-04-01T12:13:06.871Z,34.23
2019-04-01T12:14:06.888Z,31.73
2019-04-01T12:15:06.909Z,32.12
2019-04-01T12:16:07.174Z,31.07
2019-04-01T12:17:06.923Z,31.67
2019-04-01T12:18:06.932Z,30.41
2019-04-01T12:19:06.946Z,29.53
2019-04-01T12:20:06.962Z,31.10
2019-04-01T12:21:08.255Z,31.57
2019-04-01T12:22:06.981Z,29.64
2019-04-01T12:23:07.025Z,27.49
2019-04-01T12:24:07.010Z,27.50
2019-04-01T12:25:07.018Z,28.29
2019-04-01T12:26:14.953Z,28.79
2019-04-01T12:27:07.044Z,28.39
2019-04-01T12:28:07.057Z,29.17
2019-04-01T12:29:07.067Z,29.97
2019-04-01T12:30:07.082Z,28.51
2019-04-01T12:31:07.094Z,27.83
2019-04-01T12:32:07.111Z,27.64
2019-04-01T12:33:07.120Z,26.93
2019-04-01T12:34:07.133Z,27.61
2019-04-01T12:35:07.143Z,27.72
2019-04-01T12:36:07.162Z,29.40
2019-04-01T12:37:07.182Z,27.45
2019-04-01T12:38:07.185Z,27.43
2019-04-01T12:39:07.195Z,27.24
2019-04-01T12:40:07.206Z,27.61
2019-04-01T12:41:07.227Z,28.00
2019-04-01T12:42:07.238Z,28.20
2019-04-01T12:43:07.249Z,28.19
2019-04-01T12:44:07.260Z,27.10
2019-04-01T12:45:07.278Z,27.21
2019-04-01T12:46:07.292Z,28.47
2019-04-01T12:47:07.305Z,28.85
2019-04-01T12:48:07.313Z,29.44
2019-04-01T12:49:07.329Z,30.69
2019-04-01T12:50:07.346Z,28.76
2019-04-01T12:51:07.355Z,28.97
2019-04-01T12:52:07.364Z,27.42
2019-04-01T12:53:07.380Z,26.05
2019-04-01T12:54:07.390Z,27.98
2019-04-01T12:55:07.406Z,29.26
2019-04-01T12:56:07.419Z,28.02